51ème Rallye Le Touquet Pas-De-Calais
Championnat de France des Rallyes
1 2 BRUNSON Eric/MONDON Cédric Subaru Impreza WRC A 8W 2:04:40,0 CF
2 1 SNOBECK Dany/MONDESIR Gilles Citroën C4 WRC A 8W 2:05:11,2 +00:31,2 +00:31,2 CF
3 8 MAURIN Julien/URAL Olivier Ford Fiesta S2000 A 7S 2:09:36,5 +04:56,5 +04:25,3 CF TM
4 3 ROCHE Pierre/ROCHE Martine Peugeot 307 WRC A 8W 2:10:59,9 +06:19,9 +01:23,4 CF
5 16 DELANOUE Damien/PORCHER Sébastien Mitsubishi Lancer Evo 8 A 8 2:12:25,5 +07:45,5 +01:25,6 TM
6 35 MARCHE Pierre/GALLIER Charlène Subaru Impreza N 4 2:13:03,5 +08:23,5 +00:38,0 CF TM
7 22 ROBERT Cédric/DUVAL Matthieu Citroën DS3 R3 R 3 2:13:03,9 +08:23,9 +00:00,4 CF C
8 23 AMOURETTE Marc/MARIE Gwenola Citroën DS3 R3 R 3 2:13:17,4 +08:37,4 +00:13,5 CF C
9 20 GUIGOU Emmanuel/BOULLOUD Benjamin Renault Mégane RS N 4 2:13:33,0 +08:53,0 +00:15,6 CF
10 27 PRINCEN Kris/EELBODE Bram Renault Clio R3 R 3 2:14:24,9 +09:44,9 +00:51,9 CF R3
11 6 BEAUBELIQUE Jean-Charles/VIAL Julien Peugeot 207 S2000 A 7S 2:14:53,4 +10:13,4 +00:28,5 CF TM
12 39 LEMONNIER Xavier/GORCZYCA Thibault Subaru Impreza N 4 2:15:18,5 +10:38,5 +00:25,1 CF TM
13 24 ARZENO Mathieu/JAMOUL Renaud Citroën DS3 R3 R 3 2:15:50,7 +11:10,7 +00:32,2 CF C
14 12 BARBARA Jose/BARBARA Chantal Subaru Impreza A 8 2:16:05,8 +11:25,8 +00:15,1 TM
15 28 BARRAL Thomas/SEUX Sabrina Renault Clio R3 R 3 2:16:08,9 +11:28,9 +00:03,1 CF R3
16 26 MAUFFREY Eric/HOUSSIN Gaëtan Renault Clio R3 R 3 2:16:47,2 +12:07,2 +00:38,3 CF R3
17 40 HOT Jean-Nicolas/ENTZ Sophie Subaru Impreza N15 N 4 2:17:59,3 +13:19,3 +01:12,1 CF TM
18 54 REYDELLET Mickaël/CHAUFFRAY Thomas Citroën C2 R2 Max R 2 2:18:32,5 +13:52,5 +00:33,2 CF C
19 104 VANSON Johan/BRULE Antoine Mitsubishi Lancer Evo 6 FN 4 2:19:03,5 +14:23,5 +00:31,0 TM
20 53 SIROT Guillaume/DECOUZON Pierre Citroën C2 R2 Max R 2 2:19:13,0 +14:33,0 +00:09,5 CF C
21 15 CHRISTIANN Vincent/CALONNE Aurore Toyota Celica GT4 FA 8 2:19:41,7 +15:01,7 +00:28,7 CF TM
22 29 COURTOIS Olivier/JOLE Damien Renault Clio R3 R 3 2:20:34,3 +15:54,3 +00:52,6 CF R3
23 32 LEFEBVRE Stéphane/PIROTTE Cedric Peugeot 207 R3 R 3 2:21:15,2 +16:35,2 +00:40,9 CF TM
24 37 MEYER Eric/NOLLET Stevie Subaru Impreza N12B N 4 2:21:30,5 +16:50,5 +00:15,3 CF TM
25 56 SCHULZ Benoît/SCHULZ Pierre Citroën C2 R2 Max R 2 2:21:46,8 +17:06,8 +00:16,3 CF TM
26 43 SALINAS Romain/MICHELI Benjamin Renault Twingo R2 R 2 2:23:20,2 +18:40,2 +01:33,4 R2
27 31 AUGOYARD Arnaud/MOREAU Gabin Renault Clio R3 R 3 2:23:27,5 +18:47,5 +00:07,3 CF TM
28 125 LEGRAND Francis/LEGRAND Mathieu Renault Clio RS Sport F2 14 2:23:49,7 +19:09,7 +00:22,2
29 49 MONNIN Jean-Paul/GILLIOT Franck Renault Twingo R2 R 2 2:24:51,8 +20:11,8 +01:02,1 CF R2
30 103 GIORDANO Quentin/MICHON BRUNETTI Laurent Peugeot 207 RC R 3 2:24:55,7 +20:15,7 +00:03,9 CF TM
31 44 LEDUC Anthony/VASSEZ Amandine Renault Twingo R2 R 2 2:25:29,4 +20:49,4 +00:33,7 R2
32 45 LATOUR Bertrand/MURIGNEUX Christophe Renault Twingo R2 R 2 2:25:33,0 +20:53,0 +00:03,6 CF R2
33 63 GILBERT Quentin/TUTELAIRE Rémi Renault Twingo R1 R 1 2:28:11,6 +23:31,6 +02:38,6 J R1
34 30 CLAIRAY Yann/ROUX Thomas Renault Clio R3 R 3 2:28:13,2 +23:33,2 +00:01,6 CF R3
35 61 ROMIGUIERE Nicolas/NEGRE Alexis Renault Twingo R1 R 1 2:31:41,1 +27:01,1 +03:27,9 J R1
36 67 BERNARDI Florian/DELON Marine Renault Twingo R1 R 1 2:32:13,2 +27:33,2 +00:32,1 J R1
37 75 MARTIN Erwann/LIEFFROY Gabriel Renault Twingo R1 R 1 2:33:10,9 +28:30,9 +00:57,7 J R1
38 110 REGNIER Nicolas/CAUCHETEUX Sylvain Peugeot 206 XS A 6K 2:33:12,9 +28:32,9 +00:02,0
39 64 CHARDONNET Sébastien/DE LA HAYE Thibault Renault Twingo R1 R 1 2:33:46,9 +29:06,9 +00:34,0 J R1
40 73 MASSE Antoine/JARRY Thomas Renault Twingo R1 R 1 2:33:58,0 +29:18,0 +00:11,1 J R1
41 83 COSTE Cédric/URZEDOWSKI Florian Renault Twingo R1 R 1 2:34:03,9 +29:23,9 +00:05,9 J R1
42 81 PREVALET Mickaël/CHEVALLEY Elodie Renault Twingo R1 R 1 2:34:14,1 +29:34,1 +00:10,2 J R1
43 66 SENTIS Mathieu/VALETTE Gil Renault Twingo R1 R 1 2:34:18,4 +29:38,4 +00:04,3 CF R1
44 78 FERRERO Roman/MORIN Maxime Renault Twingo R1 R 1 2:34:38,9 +29:58,9 +00:20,5 J R1
45 74 DUBUISSON Damien/DELCAMBRE Jean-Christophe Renault Twingo R1 R 1 2:34:43,4 +30:03,4 +00:04,5 J R1
46 34 KIEFFER Laurent/CATTANT Philippe Porsche 996 GT3 RS GT 10 2:35:24,9 +30:44,9 +00:41,5 CF TM
47 76 HANQUIEZ Benjamin/NICOLET Christiane Renault Twingo R1 R 1 2:35:36,0 +30:56,0 +00:11,1 J R1
48 101 DIDIME Thomas/MAQUENHEN Guillaume Toyota Celica FA 8 2:37:02,2 +32:22,2 +01:26,2
49 65 COSTE Kévin/DE MONTREDON Jean-Francois Renault Twingo R1 R 1 2:37:20,1 +32:40,1 +00:17,9 J R1
50 92 FOSTIER Romain/ABCHICHE Ophélie Suzuki Swift N 2 2:37:53,7 +33:13,7 +00:33,6 CF SC
51 105 CARLU Jean-Pierre/CARLU François Subaru Impreza N 4 2:38:32,6 +33:52,6 +00:38,9
52 91 GUIBERT Sébastien/DAUCHEL Julien Suzuki Swift N 2 2:38:32,9 +33:52,9 +00:00,3 CF SC
53 72 BALESTER Anthony/PLA Christelle Renault Twingo R1 R 1 2:38:38,4 +33:58,4 +00:05,5 J R1
54 95 GRACIAL Laurent/DELACOUR Gabriel Suzuki Swift N 2 2:39:06,9 +34:26,9 +00:28,5 CF SC
55 147 BOLLENGIER Freddy/LELEU Damien Peugeot 205 GTI 1.6 F2 13 2:39:20,4 +34:40,4 +00:13,5
56 71 NICOLAS Dorian/SARREAUD Valentin Renault Twingo R1 R 1 2:39:27,3 +34:47,3 +00:06,9 J R1
57 142 DENIS David/DENIS Valérie Peugeot 306 S16 FN 3 2:39:43,7 +35:03,7 +00:16,4
58 93 BORDONADO Jose-Luis/BRIAND Benjamin Suzuki Swift N 2 2:40:44,2 +36:04,2 +01:00,5 CF SC
59 102 LENOIR Hervé/DENGREVILLE Dominique Renault Clio R3 R 3 2:40:50,6 +36:10,6 +00:06,4
60 59 SOUFFEZ Frédéric/PRUVOST Astrid Citroën Saxo VTS A 6 2:41:04,6 +36:24,6 +00:14,0 CF
61 143 MOUY Grégory/LIEVIN Marie Peugeot 206 FN 3 2:41:16,7 +36:36,7 +00:12,1
62 55 GALPIN Julie/TAMBERI Aurélie Citroën C2 R2 Max R 2 2:41:18,1 +36:38,1 +00:01,4 CF C
63 100 CAPLAN Anthony/BECCAVIN Romain Peugeot 106 S16 FN 2 2:41:52,1 +37:12,1 +00:34,0 CF
64 90 BERTON Charlotte/PAGES Cécile Suzuki Swift N 2 2:42:00,5 +37:20,5 +00:08,4 CF SC
65 89 CLAVEL-MOROT Patrice/ALPHAND Frédéric Renault Twingo R1 R 1 2:42:05,0 +37:25,0 +00:04,5 R1
66 146 NENOT Cedric/VASSEUR Matthieu Peugeot 106 S16 FA 6 2:42:29,6 +37:49,6 +00:24,6
67 109 MATUSZEWSKI Mathieu/MATUSZEWSKI Patrick Citroën C2 Challenge A 6K 2:43:00,4 +38:20,4 +00:30,8
68 96 MICHELIS André/SANCHEZ Nicolas Suzuki Swift N 2 2:43:52,6 +39:12,6 +00:52,2 CF SC
69 84 BOCHATAY Kévin/JORAM Solene Renault Twingo R1 R 1 2:44:55,2 +40:15,2 +01:02,6 J R1
70 141 DELFOSSE Romain/CARLUX Sébastien Renault Clio RS FN 3 2:45:17,1 +40:37,1 +00:21,9
71 160 ROUSSEL Mickael/BELLENGIER Ludovic Peugeot 205 Rallye F2 12 2:45:39,2 +40:59,2 +00:22,1
72 97 RIEHL Stéphane/LIBESSART Delphine Suzuki Swift N 2 2:45:40,2 +41:00,2 +00:01,0 CF SC
73 51 LEFRANCOIS Raphaël/DEBONTE Patrice Renault Clio RS N 3 2:46:00,5 +41:20,5 +00:20,3
74 154 MANTEL Alexandre/MANTEL Jean Raymond Citroën Saxo VTS N 2 2:47:09,9 +42:29,9 +01:09,4
75 149 LEFEBVRE Guillaume/CALBRY Jérôme Citroën C2 F2 13 2:47:25,6 +42:45,6 +00:15,7
76 88 TAMISIER Laurent/MERLIN Adrien Renault Twingo R1 R 1 2:47:44,4 +43:04,4 +00:18,8 R1
77 165 LEFRANCOIS Claude/LEROY Christophe Renault Clio N 3 2:47:54,4 +43:14,4 +00:10,0
78 112 VERBRUGGEN Eric/LECLERCQ Dominique Citroën C2 R2 R 2 2:48:01,3 +43:21,3 +00:06,9
79 163 BERTIN Eddy/COULOMBEZ Rodrigue Citroën AX GTI FN 1 2:48:59,1 +44:19,1 +00:57,8
80 152 DEVOS Guillaume/PERSYN Etienne Peugeot 106 FN 2 2:49:38,0 +44:58,0 +00:38,9
81 145 FOURNIER Laurent/JOLY Julien Citroën Saxo VTS A 6 2:54:43,5 +50:03,5 +05:05,5
82 157 PEGISSE Guillaume/OUVRY Eleonore Peugeot 106 Rallye FN 2 2:56:16,8 +51:36,8 +01:33,3
83 77 HUMEAU François/MAHIU Julien Renault Twingo R1 R 1 3:01:03,4 +56:23,4 +04:46,6 J R1
84 115 WALLON Guy/WALLON Romain Renault Clio Williams A 7 3:04:31,1 +59:51,1 +03:27,7
85 162 DESAINT BOUVILLE Coralie/MATHON Carole Citroën AX FN 1 3:19:36,1 +1:14:56,1 +15:05,0
Clt Equipage Voiture Gr/Cl Temps Ecart 1er Ecart préc. Catégories
Commentaires: © PatricK Soft  
(Temps forfaitaires=couleur bleue)
Classés:85

Epreuve: Groupe: Catégorie:

 
Retour
Classement final provisoire